sensor_id;sensor_type;location;lat;lon;timestamp;P1;durP1;ratioP1;P2;durP2;ratioP2
8488;SDS011;4281;45.772;12.852;2023-06-19T00:02:23;7.27;;;6.67;;
8488;SDS011;4281;45.772;12.852;2023-06-19T00:04:51;7.40;;;6.70;;
8488;SDS011;4281;45.772;12.852;2023-06-19T00:07:19;8.17;;;7.47;;
8488;SDS011;4281;45.772;12.852;2023-06-19T00:09:48;7.30;;;6.70;;
8488;SDS011;4281;45.772;12.852;2023-06-19T00:12:16;7.20;;;6.60;;
8488;SDS011;4281;45.772;12.852;2023-06-19T00:14:45;7.03;;;6.53;;
8488;SDS011;4281;45.772;12.852;2023-06-19T00:17:13;6.87;;;6.23;;
8488;SDS011;4281;45.772;12.852;2023-06-19T00:19:43;7.30;;;6.60;;
8488;SDS011;4281;45.772;12.852;2023-06-19T00:22:11;6.87;;;6.37;;
8488;SDS011;4281;45.772;12.852;2023-06-19T00:24:39;7.30;;;6.60;;
8488;SDS011;4281;45.772;12.852;2023-06-19T00:27:07;7.20;;;6.60;;
8488;SDS011;4281;45.772;12.852;2023-06-19T00:29:35;7.07;;;6.47;;
8488;SDS011;4281;45.772;12.852;2023-06-19T00:32:05;6.67;;;6.03;;
8488;SDS011;4281;45.772;12.852;2023-06-19T00:34:33;7.10;;;6.50;;
8488;SDS011;4281;45.772;12.852;2023-06-19T00:37:03;6.40;;;5.80;;
8488;SDS011;4281;45.772;12.852;2023-06-19T00:39:32;7.70;;;7.00;;
8488;SDS011;4281;45.772;12.852;2023-06-19T00:41:59;8.70;;;7.30;;
8488;SDS011;4281;45.772;12.852;2023-06-19T00:44:27;7.20;;;6.50;;
8488;SDS011;4281;45.772;12.852;2023-06-19T00:46:56;6.97;;;6.33;;
8488;SDS011;4281;45.772;12.852;2023-06-19T00:49:28;7.10;;;6.40;;
8488;SDS011;4281;45.772;12.852;2023-06-19T00:51:58;7.30;;;6.70;;
8488;SDS011;4281;45.772;12.852;2023-06-19T00:54:26;7.93;;;7.23;;
8488;SDS011;4281;45.772;12.852;2023-06-19T00:56:54;7.30;;;6.60;;
8488;SDS011;4281;45.772;12.852;2023-06-19T00:59:22;7.27;;;6.67;;
8488;SDS011;4281;45.772;12.852;2023-06-19T01:01:50;7.30;;;6.70;;
8488;SDS011;4281;45.772;12.852;2023-06-19T01:04:18;7.30;;;6.70;;
8488;SDS011;4281;45.772;12.852;2023-06-19T01:06:49;7.80;;;7.10;;
8488;SDS011;4281;45.772;12.852;2023-06-19T01:09:25;7.27;;;6.57;;
8488;SDS011;4281;45.772;12.852;2023-06-19T01:11:57;7.13;;;6.50;;
8488;SDS011;4281;45.772;12.852;2023-06-19T01:14:41;7.47;;;6.17;;
8488;SDS011;4281;45.772;12.852;2023-06-19T01:17:12;7.00;;;6.40;;
8488;SDS011;4281;45.772;12.852;2023-06-19T01:19:40;7.20;;;6.60;;
8488;SDS011;4281;45.772;12.852;2023-06-19T01:22:09;6.93;;;6.33;;
8488;SDS011;4281;45.772;12.852;2023-06-19T01:24:37;6.63;;;6.03;;
8488;SDS011;4281;45.772;12.852;2023-06-19T01:27:05;6.60;;;6.00;;
8488;SDS011;4281;45.772;12.852;2023-06-19T01:29:33;7.40;;;6.80;;
8488;SDS011;4281;45.772;12.852;2023-06-19T01:32:02;6.77;;;6.17;;
8488;SDS011;4281;45.772;12.852;2023-06-19T01:34:32;6.50;;;5.90;;
8488;SDS011;4281;45.772;12.852;2023-06-19T01:37:03;6.93;;;6.43;;
8488;SDS011;4281;45.772;12.852;2023-06-19T01:39:34;8.00;;;7.10;;
8488;SDS011;4281;45.772;12.852;2023-06-19T01:42:03;7.30;;;6.70;;
8488;SDS011;4281;45.772;12.852;2023-06-19T01:44:32;7.07;;;6.47;;
8488;SDS011;4281;45.772;12.852;2023-06-19T01:47:06;7.53;;;6.93;;
8488;SDS011;4281;45.772;12.852;2023-06-19T01:49:35;8.00;;;7.30;;
8488;SDS011;4281;45.772;12.852;2023-06-19T01:52:04;8.63;;;7.83;;
8488;SDS011;4281;45.772;12.852;2023-06-19T01:54:34;7.87;;;7.27;;
8488;SDS011;4281;45.772;12.852;2023-06-19T01:57:02;9.10;;;8.40;;
8488;SDS011;4281;45.772;12.852;2023-06-19T01:59:30;8.70;;;8.00;;
8488;SDS011;4281;45.772;12.852;2023-06-19T02:01:58;8.90;;;8.10;;
8488;SDS011;4281;45.772;12.852;2023-06-19T02:04:26;8.67;;;7.80;;
8488;SDS011;4281;45.772;12.852;2023-06-19T02:06:53;8.90;;;8.10;;
8488;SDS011;4281;45.772;12.852;2023-06-19T02:09:21;8.67;;;7.97;;
8488;SDS011;4281;45.772;12.852;2023-06-19T02:11:51;8.67;;;7.87;;
8488;SDS011;4281;45.772;12.852;2023-06-19T02:14:18;8.47;;;7.77;;
8488;SDS011;4281;45.772;12.852;2023-06-19T02:16:46;9.07;;;8.37;;
8488;SDS011;4281;45.772;12.852;2023-06-19T02:19:14;8.97;;;8.20;;
8488;SDS011;4281;45.772;12.852;2023-06-19T02:21:42;9.57;;;8.77;;
8488;SDS011;4281;45.772;12.852;2023-06-19T02:24:10;9.20;;;8.50;;
8488;SDS011;4281;45.772;12.852;2023-06-19T02:26:38;9.57;;;8.77;;
8488;SDS011;4281;45.772;12.852;2023-06-19T02:29:07;8.70;;;8.03;;
8488;SDS011;4281;45.772;12.852;2023-06-19T02:31:35;8.90;;;8.03;;
8488;SDS011;4281;45.772;12.852;2023-06-19T02:34:03;8.83;;;8.13;;
8488;SDS011;4281;45.772;12.852;2023-06-19T02:36:31;8.73;;;7.83;;
8488;SDS011;4281;45.772;12.852;2023-06-19T02:38:59;8.93;;;8.13;;
8488;SDS011;4281;45.772;12.852;2023-06-19T02:41:27;8.77;;;8.13;;
8488;SDS011;4281;45.772;12.852;2023-06-19T02:43:54;8.67;;;7.87;;
8488;SDS011;4281;45.772;12.852;2023-06-19T02:46:24;8.97;;;8.23;;
8488;SDS011;4281;45.772;12.852;2023-06-19T02:48:52;8.43;;;7.73;;
8488;SDS011;4281;45.772;12.852;2023-06-19T02:51:20;8.13;;;7.43;;
8488;SDS011;4281;45.772;12.852;2023-06-19T02:53:48;7.70;;;7.10;;
8488;SDS011;4281;45.772;12.852;2023-06-19T02:56:15;7.97;;;7.33;;
8488;SDS011;4281;45.772;12.852;2023-06-19T02:58:43;8.30;;;7.60;;
8488;SDS011;4281;45.772;12.852;2023-06-19T03:01:11;8.40;;;7.70;;
8488;SDS011;4281;45.772;12.852;2023-06-19T03:03:40;7.40;;;6.83;;
8488;SDS011;4281;45.772;12.852;2023-06-19T03:06:08;7.43;;;6.83;;
8488;SDS011;4281;45.772;12.852;2023-06-19T03:08:36;7.67;;;7.07;;
8488;SDS011;4281;45.772;12.852;2023-06-19T03:11:04;7.87;;;7.17;;
8488;SDS011;4281;45.772;12.852;2023-06-19T03:13:43;7.23;;;6.63;;
8488;SDS011;4281;45.772;12.852;2023-06-19T03:16:12;7.87;;;7.10;;
8488;SDS011;4281;45.772;12.852;2023-06-19T03:18:42;7.73;;;7.03;;
8488;SDS011;4281;45.772;12.852;2023-06-19T03:21:11;7.50;;;6.80;;
8488;SDS011;4281;45.772;12.852;2023-06-19T03:23:39;6.77;;;6.10;;
8488;SDS011;4281;45.772;12.852;2023-06-19T03:26:08;7.63;;;7.03;;
8488;SDS011;4281;45.772;12.852;2023-06-19T03:28:36;7.20;;;6.60;;
8488;SDS011;4281;45.772;12.852;2023-06-19T03:31:04;6.97;;;6.47;;
8488;SDS011;4281;45.772;12.852;2023-06-19T03:33:32;7.43;;;6.73;;
8488;SDS011;4281;45.772;12.852;2023-06-19T03:36:01;6.57;;;6.07;;
8488;SDS011;4281;45.772;12.852;2023-06-19T03:38:29;6.73;;;6.13;;
8488;SDS011;4281;45.772;12.852;2023-06-19T03:40:57;7.50;;;6.80;;
8488;SDS011;4281;45.772;12.852;2023-06-19T03:43:25;7.47;;;6.77;;
8488;SDS011;4281;45.772;12.852;2023-06-19T03:45:53;7.10;;;6.40;;
8488;SDS011;4281;45.772;12.852;2023-06-19T03:48:21;6.67;;;6.07;;
8488;SDS011;4281;45.772;12.852;2023-06-19T03:50:49;6.73;;;6.23;;
8488;SDS011;4281;45.772;12.852;2023-06-19T03:53:18;7.20;;;6.60;;
8488;SDS011;4281;45.772;12.852;2023-06-19T03:55:46;7.37;;;6.60;;
8488;SDS011;4281;45.772;12.852;2023-06-19T03:58:14;6.60;;;6.00;;
8488;SDS011;4281;45.772;12.852;2023-06-19T04:00:42;6.93;;;6.33;;
8488;SDS011;4281;45.772;12.852;2023-06-19T04:03:10;6.93;;;6.40;;
8488;SDS011;4281;45.772;12.852;2023-06-19T04:05:38;6.90;;;6.30;;
8488;SDS011;4281;45.772;12.852;2023-06-19T04:08:08;7.20;;;6.50;;
8488;SDS011;4281;45.772;12.852;2023-06-19T04:10:37;7.20;;;6.60;;
8488;SDS011;4281;45.772;12.852;2023-06-19T04:13:05;7.30;;;6.50;;
8488;SDS011;4281;45.772;12.852;2023-06-19T04:15:34;6.70;;;6.10;;
8488;SDS011;4281;45.772;12.852;2023-06-19T04:18:03;6.70;;;6.20;;
8488;SDS011;4281;45.772;12.852;2023-06-19T04:20:31;6.70;;;6.10;;
8488;SDS011;4281;45.772;12.852;2023-06-19T04:23:00;6.93;;;6.23;;
8488;SDS011;4281;45.772;12.852;2023-06-19T04:25:28;9.40;;;6.37;;
8488;SDS011;4281;45.772;12.852;2023-06-19T04:27:57;7.23;;;6.53;;
8488;SDS011;4281;45.772;12.852;2023-06-19T04:30:25;8.47;;;6.57;;
8488;SDS011;4281;45.772;12.852;2023-06-19T04:32:53;6.90;;;6.20;;
8488;SDS011;4281;45.772;12.852;2023-06-19T04:35:21;6.80;;;6.10;;
8488;SDS011;4281;45.772;12.852;2023-06-19T04:37:50;7.73;;;7.03;;
8488;SDS011;4281;45.772;12.852;2023-06-19T04:40:18;6.60;;;6.10;;
8488;SDS011;4281;45.772;12.852;2023-06-19T04:42:45;8.10;;;6.13;;
8488;SDS011;4281;45.772;12.852;2023-06-19T04:45:15;7.10;;;6.40;;
8488;SDS011;4281;45.772;12.852;2023-06-19T04:47:43;6.50;;;5.90;;
8488;SDS011;4281;45.772;12.852;2023-06-19T04:50:19;6.20;;;5.60;;
8488;SDS011;4281;45.772;12.852;2023-06-19T04:52:48;6.90;;;6.30;;
8488;SDS011;4281;45.772;12.852;2023-06-19T04:55:18;7.17;;;6.37;;
8488;SDS011;4281;45.772;12.852;2023-06-19T04:57:46;6.27;;;5.77;;
8488;SDS011;4281;45.772;12.852;2023-06-19T05:00:16;6.47;;;5.87;;
8488;SDS011;4281;45.772;12.852;2023-06-19T05:02:49;5.90;;;5.40;;
8488;SDS011;4281;45.772;12.852;2023-06-19T05:05:27;5.70;;;5.20;;
8488;SDS011;4281;45.772;12.852;2023-06-19T05:08:34;5.07;;;4.67;;
8488;SDS011;4281;45.772;12.852;2023-06-19T05:11:25;5.93;;;5.43;;
8488;SDS011;4281;45.772;12.852;2023-06-19T05:13:52;6.00;;;5.40;;
8488;SDS011;4281;45.772;12.852;2023-06-19T05:16:22;5.50;;;5.00;;
8488;SDS011;4281;45.772;12.852;2023-06-19T05:18:51;6.27;;;5.30;;
8488;SDS011;4281;45.772;12.852;2023-06-19T05:21:19;5.63;;;5.13;;
8488;SDS011;4281;45.772;12.852;2023-06-19T05:23:47;5.73;;;5.23;;
8488;SDS011;4281;45.772;12.852;2023-06-19T05:26:16;6.20;;;5.40;;
8488;SDS011;4281;45.772;12.852;2023-06-19T05:28:44;5.97;;;5.37;;
8488;SDS011;4281;45.772;12.852;2023-06-19T05:31:12;7.07;;;5.57;;
8488;SDS011;4281;45.772;12.852;2023-06-19T05:33:41;6.30;;;5.30;;
8488;SDS011;4281;45.772;12.852;2023-06-19T05:36:09;5.37;;;4.87;;
8488;SDS011;4281;45.772;12.852;2023-06-19T05:38:37;6.27;;;5.57;;
8488;SDS011;4281;45.772;12.852;2023-06-19T05:41:05;5.70;;;5.20;;
8488;SDS011;4281;45.772;12.852;2023-06-19T05:43:33;6.10;;;5.60;;
8488;SDS011;4281;45.772;12.852;2023-06-19T05:46:01;7.50;;;5.83;;
8488;SDS011;4281;45.772;12.852;2023-06-19T05:48:29;5.70;;;5.20;;
8488;SDS011;4281;45.772;12.852;2023-06-19T05:50:59;5.67;;;5.17;;
8488;SDS011;4281;45.772;12.852;2023-06-19T05:53:27;6.63;;;5.93;;
8488;SDS011;4281;45.772;12.852;2023-06-19T05:55:55;5.57;;;5.00;;
8488;SDS011;4281;45.772;12.852;2023-06-19T05:58:22;5.50;;;4.90;;
8488;SDS011;4281;45.772;12.852;2023-06-19T06:00:52;6.03;;;5.40;;
8488;SDS011;4281;45.772;12.852;2023-06-19T06:03:24;5.47;;;5.07;;
8488;SDS011;4281;45.772;12.852;2023-06-19T06:05:52;5.80;;;5.30;;
8488;SDS011;4281;45.772;12.852;2023-06-19T06:08:21;5.03;;;4.63;;
8488;SDS011;4281;45.772;12.852;2023-06-19T06:10:49;6.40;;;5.47;;
8488;SDS011;4281;45.772;12.852;2023-06-19T06:13:17;6.23;;;5.70;;
8488;SDS011;4281;45.772;12.852;2023-06-19T06:15:45;5.93;;;5.43;;
8488;SDS011;4281;45.772;12.852;2023-06-19T06:18:14;6.20;;;5.60;;
8488;SDS011;4281;45.772;12.852;2023-06-19T06:20:42;5.77;;;5.27;;
8488;SDS011;4281;45.772;12.852;2023-06-19T06:23:10;5.50;;;5.00;;
8488;SDS011;4281;45.772;12.852;2023-06-19T06:25:39;5.70;;;5.13;;
8488;SDS011;4281;45.772;12.852;2023-06-19T06:28:07;5.93;;;5.43;;
8488;SDS011;4281;45.772;12.852;2023-06-19T06:30:35;6.00;;;5.50;;
8488;SDS011;4281;45.772;12.852;2023-06-19T06:33:03;7.60;;;6.07;;
8488;SDS011;4281;45.772;12.852;2023-06-19T06:35:31;6.33;;;5.73;;
8488;SDS011;4281;45.772;12.852;2023-06-19T06:37:59;5.87;;;5.37;;
8488;SDS011;4281;45.772;12.852;2023-06-19T06:40:27;6.33;;;5.73;;
8488;SDS011;4281;45.772;12.852;2023-06-19T06:42:56;7.80;;;5.83;;
8488;SDS011;4281;45.772;12.852;2023-06-19T06:45:24;7.30;;;5.93;;
8488;SDS011;4281;45.772;12.852;2023-06-19T06:47:53;6.63;;;6.03;;
8488;SDS011;4281;45.772;12.852;2023-06-19T06:50:21;6.43;;;5.30;;
8488;SDS011;4281;45.772;12.852;2023-06-19T06:52:50;8.17;;;6.00;;
8488;SDS011;4281;45.772;12.852;2023-06-19T06:55:18;7.27;;;5.50;;
8488;SDS011;4281;45.772;12.852;2023-06-19T06:57:46;6.47;;;5.87;;
8488;SDS011;4281;45.772;12.852;2023-06-19T07:00:15;7.97;;;6.33;;
8488;SDS011;4281;45.772;12.852;2023-06-19T07:02:44;6.43;;;5.80;;
8488;SDS011;4281;45.772;12.852;2023-06-19T07:05:14;5.97;;;5.43;;
8488;SDS011;4281;45.772;12.852;2023-06-19T07:07:42;6.00;;;5.40;;
8488;SDS011;4281;45.772;12.852;2023-06-19T07:10:10;5.90;;;5.33;;
8488;SDS011;4281;45.772;12.852;2023-06-19T07:12:45;5.90;;;5.40;;
8488;SDS011;4281;45.772;12.852;2023-06-19T07:15:15;5.33;;;4.80;;
8488;SDS011;4281;45.772;12.852;2023-06-19T07:17:43;5.17;;;4.70;;
8488;SDS011;4281;45.772;12.852;2023-06-19T07:20:12;5.60;;;5.10;;
8488;SDS011;4281;45.772;12.852;2023-06-19T07:22:40;5.93;;;5.33;;
8488;SDS011;4281;45.772;12.852;2023-06-19T07:25:09;5.33;;;4.83;;
8488;SDS011;4281;45.772;12.852;2023-06-19T07:27:37;6.83;;;5.33;;
8488;SDS011;4281;45.772;12.852;2023-06-19T07:30:06;5.47;;;4.97;;
8488;SDS011;4281;45.772;12.852;2023-06-19T07:32:36;5.20;;;4.80;;
8488;SDS011;4281;45.772;12.852;2023-06-19T07:35:05;6.07;;;4.93;;
8488;SDS011;4281;45.772;12.852;2023-06-19T07:37:33;7.27;;;5.03;;
8488;SDS011;4281;45.772;12.852;2023-06-19T07:40:01;6.07;;;5.47;;
8488;SDS011;4281;45.772;12.852;2023-06-19T07:42:30;6.27;;;5.67;;
8488;SDS011;4281;45.772;12.852;2023-06-19T07:44:58;5.43;;;5.00;;
8488;SDS011;4281;45.772;12.852;2023-06-19T07:47:26;5.70;;;4.73;;
8488;SDS011;4281;45.772;12.852;2023-06-19T07:50:00;6.10;;;5.20;;
8488;SDS011;4281;45.772;12.852;2023-06-19T07:52:28;4.93;;;4.53;;
8488;SDS011;4281;45.772;12.852;2023-06-19T07:54:57;4.90;;;4.50;;
8488;SDS011;4281;45.772;12.852;2023-06-19T07:57:25;5.07;;;4.67;;
8488;SDS011;4281;45.772;12.852;2023-06-19T07:59:54;6.07;;;4.90;;
8488;SDS011;4281;45.772;12.852;2023-06-19T08:02:22;5.03;;;4.53;;
8488;SDS011;4281;45.772;12.852;2023-06-19T08:04:50;5.87;;;4.67;;
8488;SDS011;4281;45.772;12.852;2023-06-19T08:07:19;4.87;;;4.40;;
8488;SDS011;4281;45.772;12.852;2023-06-19T08:09:47;4.73;;;4.33;;
8488;SDS011;4281;45.772;12.852;2023-06-19T08:12:29;5.43;;;4.93;;
8488;SDS011;4281;45.772;12.852;2023-06-19T08:14:57;5.67;;;5.10;;
8488;SDS011;4281;45.772;12.852;2023-06-19T08:17:25;6.83;;;5.27;;
8488;SDS011;4281;45.772;12.852;2023-06-19T08:19:53;6.00;;;4.80;;
8488;SDS011;4281;45.772;12.852;2023-06-19T08:22:22;5.30;;;4.80;;
8488;SDS011;4281;45.772;12.852;2023-06-19T08:24:51;5.13;;;4.73;;
8488;SDS011;4281;45.772;12.852;2023-06-19T08:27:19;5.20;;;4.80;;
8488;SDS011;4281;45.772;12.852;2023-06-19T08:29:47;5.10;;;4.60;;
8488;SDS011;4281;45.772;12.852;2023-06-19T08:32:17;5.00;;;4.33;;
8488;SDS011;4281;45.772;12.852;2023-06-19T08:34:45;4.97;;;4.57;;
8488;SDS011;4281;45.772;12.852;2023-06-19T08:37:13;5.53;;;5.03;;
8488;SDS011;4281;45.772;12.852;2023-06-19T08:39:42;4.77;;;4.37;;
8488;SDS011;4281;45.772;12.852;2023-06-19T08:42:10;4.70;;;4.30;;
8488;SDS011;4281;45.772;12.852;2023-06-19T08:47:28;5.13;;;4.73;;
8488;SDS011;4281;45.772;12.852;2023-06-19T08:49:57;5.33;;;4.87;;
8488;SDS011;4281;45.772;12.852;2023-06-19T08:52:28;4.67;;;4.27;;
8488;SDS011;4281;45.772;12.852;2023-06-19T08:54:57;5.50;;;4.83;;
8488;SDS011;4281;45.772;12.852;2023-06-19T08:57:35;5.20;;;4.70;;
8488;SDS011;4281;45.772;12.852;2023-06-19T09:00:03;4.63;;;4.23;;
8488;SDS011;4281;45.772;12.852;2023-06-19T09:02:36;5.40;;;4.90;;
8488;SDS011;4281;45.772;12.852;2023-06-19T09:05:11;5.27;;;4.77;;
8488;SDS011;4281;45.772;12.852;2023-06-19T09:07:40;6.20;;;4.87;;
8488;SDS011;4281;45.772;12.852;2023-06-19T09:10:13;5.40;;;4.70;;
8488;SDS011;4281;45.772;12.852;2023-06-19T09:12:43;5.10;;;4.60;;
8488;SDS011;4281;45.772;12.852;2023-06-19T09:15:11;5.20;;;4.70;;
8488;SDS011;4281;45.772;12.852;2023-06-19T09:17:40;4.97;;;4.47;;
8488;SDS011;4281;45.772;12.852;2023-06-19T09:20:08;4.77;;;4.33;;
8488;SDS011;4281;45.772;12.852;2023-06-19T09:22:37;5.33;;;4.83;;
8488;SDS011;4281;45.772;12.852;2023-06-19T09:25:06;5.33;;;4.83;;
8488;SDS011;4281;45.772;12.852;2023-06-19T09:27:38;5.03;;;4.53;;
8488;SDS011;4281;45.772;12.852;2023-06-19T09:30:07;5.20;;;4.70;;
8488;SDS011;4281;45.772;12.852;2023-06-19T09:32:35;5.30;;;4.90;;
8488;SDS011;4281;45.772;12.852;2023-06-19T09:35:03;5.20;;;4.80;;
8488;SDS011;4281;45.772;12.852;2023-06-19T09:37:31;5.30;;;4.80;;
8488;SDS011;4281;45.772;12.852;2023-06-19T09:40:00;5.37;;;4.83;;
8488;SDS011;4281;45.772;12.852;2023-06-19T09:42:33;5.27;;;4.80;;
8488;SDS011;4281;45.772;12.852;2023-06-19T09:45:04;4.80;;;4.30;;
8488;SDS011;4281;45.772;12.852;2023-06-19T09:47:35;4.83;;;4.43;;
8488;SDS011;4281;45.772;12.852;2023-06-19T09:50:04;5.10;;;4.70;;
8488;SDS011;4281;45.772;12.852;2023-06-19T09:52:33;5.40;;;4.90;;
8488;SDS011;4281;45.772;12.852;2023-06-19T09:55:02;5.53;;;5.00;;
8488;SDS011;4281;45.772;12.852;2023-06-19T09:57:31;5.43;;;4.93;;
8488;SDS011;4281;45.772;12.852;2023-06-19T10:00:00;4.63;;;4.23;;
8488;SDS011;4281;45.772;12.852;2023-06-19T10:02:38;5.10;;;4.70;;
8488;SDS011;4281;45.772;12.852;2023-06-19T10:05:07;5.23;;;4.80;;
8488;SDS011;4281;45.772;12.852;2023-06-19T10:07:41;5.37;;;4.87;;
8488;SDS011;4281;45.772;12.852;2023-06-19T10:10:11;5.40;;;4.90;;
8488;SDS011;4281;45.772;12.852;2023-06-19T10:12:49;5.30;;;4.80;;
8488;SDS011;4281;45.772;12.852;2023-06-19T10:15:20;4.97;;;4.40;;
8488;SDS011;4281;45.772;12.852;2023-06-19T10:17:48;4.83;;;4.43;;
8488;SDS011;4281;45.772;12.852;2023-06-19T10:20:21;5.37;;;4.67;;
8488;SDS011;4281;45.772;12.852;2023-06-19T10:22:58;5.07;;;4.67;;
8488;SDS011;4281;45.772;12.852;2023-06-19T10:25:30;5.10;;;4.70;;
8488;SDS011;4281;45.772;12.852;2023-06-19T10:27:59;4.53;;;4.13;;
8488;SDS011;4281;45.772;12.852;2023-06-19T10:30:28;5.47;;;4.93;;
8488;SDS011;4281;45.772;12.852;2023-06-19T10:32:57;5.07;;;4.57;;
8488;SDS011;4281;45.772;12.852;2023-06-19T10:35:25;5.53;;;4.93;;
8488;SDS011;4281;45.772;12.852;2023-06-19T10:37:53;5.37;;;4.87;;
8488;SDS011;4281;45.772;12.852;2023-06-19T10:40:21;5.70;;;5.20;;
8488;SDS011;4281;45.772;12.852;2023-06-19T10:42:49;5.30;;;4.83;;
8488;SDS011;4281;45.772;12.852;2023-06-19T10:45:17;6.03;;;5.33;;
8488;SDS011;4281;45.772;12.852;2023-06-19T10:47:47;5.07;;;4.67;;
8488;SDS011;4281;45.772;12.852;2023-06-19T10:50:15;4.87;;;4.47;;
8488;SDS011;4281;45.772;12.852;2023-06-19T10:52:43;5.33;;;4.83;;
8488;SDS011;4281;45.772;12.852;2023-06-19T10:55:12;5.20;;;4.80;;
8488;SDS011;4281;45.772;12.852;2023-06-19T10:57:40;5.70;;;5.20;;
8488;SDS011;4281;45.772;12.852;2023-06-19T11:00:11;5.27;;;4.87;;
8488;SDS011;4281;45.772;12.852;2023-06-19T11:02:51;5.57;;;5.17;;
8488;SDS011;4281;45.772;12.852;2023-06-19T11:05:19;5.90;;;5.30;;
8488;SDS011;4281;45.772;12.852;2023-06-19T11:07:51;5.93;;;5.43;;
8488;SDS011;4281;45.772;12.852;2023-06-19T11:10:21;5.90;;;5.30;;
8488;SDS011;4281;45.772;12.852;2023-06-19T11:12:53;6.03;;;5.57;;
8488;SDS011;4281;45.772;12.852;2023-06-19T11:15:27;6.37;;;5.57;;
8488;SDS011;4281;45.772;12.852;2023-06-19T11:17:57;6.53;;;5.77;;
8488;SDS011;4281;45.772;12.852;2023-06-19T11:20:25;6.17;;;5.67;;
8488;SDS011;4281;45.772;12.852;2023-06-19T11:22:54;5.93;;;5.37;;
8488;SDS011;4281;45.772;12.852;2023-06-19T11:25:24;5.73;;;5.23;;
8488;SDS011;4281;45.772;12.852;2023-06-19T11:28:01;5.97;;;5.47;;
8488;SDS011;4281;45.772;12.852;2023-06-19T11:30:30;5.83;;;5.43;;
8488;SDS011;4281;45.772;12.852;2023-06-19T11:33:00;6.03;;;5.63;;
8488;SDS011;4281;45.772;12.852;2023-06-19T11:35:32;6.13;;;5.70;;
8488;SDS011;4281;45.772;12.852;2023-06-19T11:38:02;5.70;;;5.30;;
8488;SDS011;4281;45.772;12.852;2023-06-19T11:40:38;5.73;;;5.17;;
8488;SDS011;4281;45.772;12.852;2023-06-19T11:43:06;5.17;;;4.73;;
8488;SDS011;4281;45.772;12.852;2023-06-19T11:45:44;5.80;;;5.30;;
8488;SDS011;4281;45.772;12.852;2023-06-19T11:48:20;5.60;;;5.20;;
8488;SDS011;4281;45.772;12.852;2023-06-19T11:50:49;5.73;;;5.33;;
8488;SDS011;4281;45.772;12.852;2023-06-19T11:53:18;6.13;;;5.67;;
8488;SDS011;4281;45.772;12.852;2023-06-19T11:55:46;5.47;;;5.07;;
8488;SDS011;4281;45.772;12.852;2023-06-19T11:58:14;5.87;;;5.47;;
8488;SDS011;4281;45.772;12.852;2023-06-19T12:00:42;5.50;;;5.00;;
8488;SDS011;4281;45.772;12.852;2023-06-19T12:03:10;6.23;;;5.73;;
8488;SDS011;4281;45.772;12.852;2023-06-19T12:05:40;5.90;;;5.33;;
8488;SDS011;4281;45.772;12.852;2023-06-19T12:08:08;5.40;;;5.00;;
8488;SDS011;4281;45.772;12.852;2023-06-19T12:10:36;5.70;;;5.30;;
8488;SDS011;4281;45.772;12.852;2023-06-19T12:13:03;5.20;;;4.80;;
8488;SDS011;4281;45.772;12.852;2023-06-19T12:15:31;5.40;;;4.90;;
8488;SDS011;4281;45.772;12.852;2023-06-19T12:18:02;5.83;;;5.37;;
8488;SDS011;4281;45.772;12.852;2023-06-19T12:20:33;5.60;;;5.20;;
8488;SDS011;4281;45.772;12.852;2023-06-19T12:23:02;5.87;;;5.37;;
8488;SDS011;4281;45.772;12.852;2023-06-19T12:25:30;5.83;;;5.17;;
8488;SDS011;4281;45.772;12.852;2023-06-19T12:27:58;5.87;;;5.37;;
8488;SDS011;4281;45.772;12.852;2023-06-19T12:30:26;5.97;;;5.47;;
8488;SDS011;4281;45.772;12.852;2023-06-19T12:32:54;5.40;;;5.00;;
8488;SDS011;4281;45.772;12.852;2023-06-19T12:35:22;5.70;;;5.20;;
8488;SDS011;4281;45.772;12.852;2023-06-19T12:37:50;4.87;;;4.47;;
8488;SDS011;4281;45.772;12.852;2023-06-19T12:40:19;5.70;;;5.20;;
8488;SDS011;4281;45.772;12.852;2023-06-19T12:42:47;5.37;;;4.97;;
8488;SDS011;4281;45.772;12.852;2023-06-19T12:45:16;5.67;;;5.17;;
8488;SDS011;4281;45.772;12.852;2023-06-19T12:47:44;5.50;;;4.80;;
8488;SDS011;4281;45.772;12.852;2023-06-19T12:50:12;5.73;;;5.27;;
8488;SDS011;4281;45.772;12.852;2023-06-19T12:52:40;5.10;;;4.73;;
8488;SDS011;4281;45.772;12.852;2023-06-19T12:55:08;5.10;;;4.70;;
8488;SDS011;4281;45.772;12.852;2023-06-19T12:57:38;6.23;;;5.30;;
8488;SDS011;4281;45.772;12.852;2023-06-19T13:00:09;5.47;;;5.03;;
8488;SDS011;4281;45.772;12.852;2023-06-19T13:02:38;5.80;;;5.30;;
8488;SDS011;4281;45.772;12.852;2023-06-19T13:05:07;5.53;;;5.03;;
8488;SDS011;4281;45.772;12.852;2023-06-19T13:07:35;5.63;;;5.10;;
8488;SDS011;4281;45.772;12.852;2023-06-19T13:10:03;6.17;;;5.67;;
8488;SDS011;4281;45.772;12.852;2023-06-19T13:12:32;5.70;;;5.23;;
8488;SDS011;4281;45.772;12.852;2023-06-19T13:15:02;5.40;;;5.00;;
8488;SDS011;4281;45.772;12.852;2023-06-19T13:17:31;5.80;;;5.40;;
8488;SDS011;4281;45.772;12.852;2023-06-19T13:19:59;5.70;;;5.20;;
8488;SDS011;4281;45.772;12.852;2023-06-19T13:22:27;5.77;;;5.27;;
8488;SDS011;4281;45.772;12.852;2023-06-19T13:24:55;6.20;;;5.27;;
8488;SDS011;4281;45.772;12.852;2023-06-19T13:27:23;5.40;;;4.90;;
8488;SDS011;4281;45.772;12.852;2023-06-19T13:29:51;7.27;;;5.17;;
8488;SDS011;4281;45.772;12.852;2023-06-19T13:32:20;6.33;;;5.73;;
8488;SDS011;4281;45.772;12.852;2023-06-19T13:34:48;6.27;;;5.43;;
8488;SDS011;4281;45.772;12.852;2023-06-19T13:37:16;5.80;;;5.30;;
8488;SDS011;4281;45.772;12.852;2023-06-19T13:39:44;5.23;;;4.77;;
8488;SDS011;4281;45.772;12.852;2023-06-19T13:42:12;5.60;;;5.10;;
8488;SDS011;4281;45.772;12.852;2023-06-19T13:44:40;5.20;;;4.70;;
8488;SDS011;4281;45.772;12.852;2023-06-19T13:47:08;5.57;;;5.07;;
8488;SDS011;4281;45.772;12.852;2023-06-19T13:49:37;6.10;;;5.13;;
8488;SDS011;4281;45.772;12.852;2023-06-19T13:52:05;6.90;;;5.07;;
8488;SDS011;4281;45.772;12.852;2023-06-19T13:54:34;7.83;;;5.33;;
8488;SDS011;4281;45.772;12.852;2023-06-19T13:57:02;5.83;;;5.20;;
8488;SDS011;4281;45.772;12.852;2023-06-19T13:59:30;6.17;;;5.67;;
8488;SDS011;4281;45.772;12.852;2023-06-19T14:01:58;5.40;;;4.90;;
8488;SDS011;4281;45.772;12.852;2023-06-19T14:04:26;5.97;;;5.40;;
8488;SDS011;4281;45.772;12.852;2023-06-19T14:06:55;6.93;;;5.33;;
8488;SDS011;4281;45.772;12.852;2023-06-19T14:09:23;5.63;;;5.23;;
8488;SDS011;4281;45.772;12.852;2023-06-19T14:11:51;5.70;;;5.30;;
8488;SDS011;4281;45.772;12.852;2023-06-19T14:14:19;5.73;;;5.20;;
8488;SDS011;4281;45.772;12.852;2023-06-19T14:16:47;6.53;;;5.37;;
8488;SDS011;4281;45.772;12.852;2023-06-19T14:19:15;6.53;;;5.87;;
8488;SDS011;4281;45.772;12.852;2023-06-19T14:21:43;6.57;;;5.87;;
8488;SDS011;4281;45.772;12.852;2023-06-19T14:24:12;5.73;;;5.23;;
8488;SDS011;4281;45.772;12.852;2023-06-19T14:26:40;5.27;;;4.90;;
8488;SDS011;4281;45.772;12.852;2023-06-19T14:29:08;5.87;;;5.43;;
8488;SDS011;4281;45.772;12.852;2023-06-19T14:31:36;5.93;;;5.33;;
8488;SDS011;4281;45.772;12.852;2023-06-19T14:34:04;5.30;;;4.93;;
8488;SDS011;4281;45.772;12.852;2023-06-19T14:36:32;5.27;;;4.87;;
8488;SDS011;4281;45.772;12.852;2023-06-19T14:39:00;5.90;;;5.40;;
8488;SDS011;4281;45.772;12.852;2023-06-19T14:41:29;6.83;;;5.60;;
8488;SDS011;4281;45.772;12.852;2023-06-19T14:43:57;6.27;;;5.73;;
8488;SDS011;4281;45.772;12.852;2023-06-19T14:46:25;5.97;;;5.47;;
8488;SDS011;4281;45.772;12.852;2023-06-19T14:49:05;5.67;;;5.27;;
8488;SDS011;4281;45.772;12.852;2023-06-19T14:51:33;5.70;;;5.20;;
8488;SDS011;4281;45.772;12.852;2023-06-19T14:54:01;6.50;;;5.47;;
8488;SDS011;4281;45.772;12.852;2023-06-19T14:56:31;5.50;;;5.00;;
8488;SDS011;4281;45.772;12.852;2023-06-19T14:59:01;5.80;;;5.30;;
8488;SDS011;4281;45.772;12.852;2023-06-19T15:01:29;5.60;;;5.10;;
8488;SDS011;4281;45.772;12.852;2023-06-19T15:03:57;5.60;;;5.20;;
8488;SDS011;4281;45.772;12.852;2023-06-19T15:06:25;6.03;;;5.53;;
8488;SDS011;4281;45.772;12.852;2023-06-19T15:08:53;6.30;;;5.80;;
8488;SDS011;4281;45.772;12.852;2023-06-19T15:11:21;5.67;;;5.27;;
8488;SDS011;4281;45.772;12.852;2023-06-19T15:13:50;5.60;;;5.03;;
8488;SDS011;4281;45.772;12.852;2023-06-19T15:16:18;6.17;;;5.60;;